sensor_id;sensor_type;location;lat;lon;timestamp;pressure;altitude;pressure_sealevel;temperature
10869;BMP180;62667;48.698;8.762;2022-10-30T00:01:02;96444.00;;;13.30
10869;BMP180;62667;48.698;8.762;2022-10-30T00:03:29;96440.00;;;13.30
10869;BMP180;62667;48.698;8.762;2022-10-30T00:05:57;96433.00;;;13.20
10869;BMP180;62667;48.698;8.762;2022-10-30T00:08:24;96439.00;;;13.30
10869;BMP180;62667;48.698;8.762;2022-10-30T00:10:51;96434.00;;;13.20
10869;BMP180;62667;48.698;8.762;2022-10-30T00:13:19;96435.00;;;13.20
10869;BMP180;62667;48.698;8.762;2022-10-30T00:15:49;96402.00;;;13.20
10869;BMP180;62667;48.698;8.762;2022-10-30T00:18:16;96434.00;;;13.10
10869;BMP180;62667;48.698;8.762;2022-10-30T00:20:42;96425.00;;;13.00
10869;BMP180;62667;48.698;8.762;2022-10-30T00:23:08;96434.00;;;13.00
10869;BMP180;62667;48.698;8.762;2022-10-30T00:25:35;96429.00;;;13.00
10869;BMP180;62667;48.698;8.762;2022-10-30T00:28:02;96420.00;;;13.00
10869;BMP180;62667;48.698;8.762;2022-10-30T00:30:30;96438.00;;;13.10
10869;BMP180;62667;48.698;8.762;2022-10-30T00:32:56;96436.00;;;13.10
10869;BMP180;62667;48.698;8.762;2022-10-30T00:35:23;96424.00;;;13.10
10869;BMP180;62667;48.698;8.762;2022-10-30T00:37:49;96435.00;;;13.10
10869;BMP180;62667;48.698;8.762;2022-10-30T00:40:16;96431.00;;;13.10
10869;BMP180;62667;48.698;8.762;2022-10-30T00:42:43;96434.00;;;13.10
10869;BMP180;62667;48.698;8.762;2022-10-30T00:45:12;96435.00;;;13.10
10869;BMP180;62667;48.698;8.762;2022-10-30T00:47:43;96440.00;;;13.10
10869;BMP180;62667;48.698;8.762;2022-10-30T00:50:15;96439.00;;;13.10
10869;BMP180;62667;48.698;8.762;2022-10-30T00:52:51;96421.00;;;12.90
10869;BMP180;62667;48.698;8.762;2022-10-30T00:55:22;96437.00;;;12.80
10869;BMP180;62667;48.698;8.762;2022-10-30T00:57:50;96430.00;;;12.80
10869;BMP180;62667;48.698;8.762;2022-10-30T01:00:21;96432.00;;;12.80
10869;BMP180;62667;48.698;8.762;2022-10-30T01:02:51;96424.00;;;12.80
10869;BMP180;62667;48.698;8.762;2022-10-30T01:05:21;96422.00;;;12.80
10869;BMP180;62667;48.698;8.762;2022-10-30T01:07:49;96423.00;;;12.80
10869;BMP180;62667;48.698;8.762;2022-10-30T01:10:17;96417.00;;;12.90
10869;BMP180;62667;48.698;8.762;2022-10-30T01:12:45;96425.00;;;12.90
10869;BMP180;62667;48.698;8.762;2022-10-30T01:15:16;96421.00;;;12.90
10869;BMP180;62667;48.698;8.762;2022-10-30T01:18:25;96423.00;;;12.90
10869;BMP180;62667;48.698;8.762;2022-10-30T01:21:32;96422.00;;;12.80
10869;BMP180;62667;48.698;8.762;2022-10-30T01:24:22;96421.00;;;12.80
10869;BMP180;62667;48.698;8.762;2022-10-30T01:27:03;96422.00;;;12.90
10869;BMP180;62667;48.698;8.762;2022-10-30T01:29:49;96419.00;;;12.70
10869;BMP180;62667;48.698;8.762;2022-10-30T01:32:40;96415.00;;;12.70
10869;BMP180;62667;48.698;8.762;2022-10-30T01:35:18;96401.00;;;12.70
10869;BMP180;62667;48.698;8.762;2022-10-30T01:37:53;96412.00;;;12.60
10869;BMP180;62667;48.698;8.762;2022-10-30T01:40:22;96400.00;;;12.70
10869;BMP180;62667;48.698;8.762;2022-10-30T01:42:51;96372.00;;;12.60
10869;BMP180;62667;48.698;8.762;2022-10-30T01:45:31;96408.00;;;12.70
10869;BMP180;62667;48.698;8.762;2022-10-30T01:51:27;96386.00;;;12.70
10869;BMP180;62667;48.698;8.762;2022-10-30T01:54:05;96389.00;;;12.80
10869;BMP180;62667;48.698;8.762;2022-10-30T01:56:41;96394.00;;;12.80
10869;BMP180;62667;48.698;8.762;2022-10-30T01:59:17;96390.00;;;12.80
10869;BMP180;62667;48.698;8.762;2022-10-30T02:01:47;96389.00;;;12.70
10869;BMP180;62667;48.698;8.762;2022-10-30T02:04:14;96388.00;;;12.60
10869;BMP180;62667;48.698;8.762;2022-10-30T02:06:42;96394.00;;;12.60
10869;BMP180;62667;48.698;8.762;2022-10-30T02:09:08;96384.00;;;12.50
10869;BMP180;62667;48.698;8.762;2022-10-30T02:11:36;96394.00;;;12.60
10869;BMP180;62667;48.698;8.762;2022-10-30T02:14:06;96386.00;;;12.50
10869;BMP180;62667;48.698;8.762;2022-10-30T02:16:38;96385.00;;;12.50
10869;BMP180;62667;48.698;8.762;2022-10-30T02:19:06;96386.00;;;12.50
10869;BMP180;62667;48.698;8.762;2022-10-30T02:21:33;96386.00;;;12.40
10869;BMP180;62667;48.698;8.762;2022-10-30T02:24:00;96381.00;;;12.30
10869;BMP180;62667;48.698;8.762;2022-10-30T02:26:26;96389.00;;;12.20
10869;BMP180;62667;48.698;8.762;2022-10-30T02:28:55;96378.00;;;12.10
10869;BMP180;62667;48.698;8.762;2022-10-30T02:31:21;96385.00;;;12.20
10869;BMP180;62667;48.698;8.762;2022-10-30T02:33:48;96377.00;;;12.10
10869;BMP180;62667;48.698;8.762;2022-10-30T02:36:15;96344.00;;;12.20
10869;BMP180;62667;48.698;8.762;2022-10-30T02:38:42;96377.00;;;12.20
10869;BMP180;62667;48.698;8.762;2022-10-30T02:41:10;96384.00;;;12.40
10869;BMP180;62667;48.698;8.762;2022-10-30T02:43:37;96389.00;;;12.50
10869;BMP180;62667;48.698;8.762;2022-10-30T02:46:03;96383.00;;;12.30
10869;BMP180;62667;48.698;8.762;2022-10-30T02:48:30;96383.00;;;12.20
10869;BMP180;62667;48.698;8.762;2022-10-30T02:50:59;96378.00;;;12.20
10869;BMP180;62667;48.698;8.762;2022-10-30T02:53:25;96386.00;;;12.20
10869;BMP180;62667;48.698;8.762;2022-10-30T02:55:52;96380.00;;;12.20
10869;BMP180;62667;48.698;8.762;2022-10-30T02:58:21;96376.00;;;12.20
10869;BMP180;62667;48.698;8.762;2022-10-30T03:00:47;96379.00;;;12.20
10869;BMP180;62667;48.698;8.762;2022-10-30T03:03:13;96376.00;;;12.20
10869;BMP180;62667;48.698;8.762;2022-10-30T03:05:40;96366.00;;;12.10
10869;BMP180;62667;48.698;8.762;2022-10-30T03:08:07;96374.00;;;12.20
10869;BMP180;62667;48.698;8.762;2022-10-30T03:10:33;96377.00;;;12.20
10869;BMP180;62667;48.698;8.762;2022-10-30T03:13:00;96378.00;;;12.20
10869;BMP180;62667;48.698;8.762;2022-10-30T03:15:26;96384.00;;;12.00
10869;BMP180;62667;48.698;8.762;2022-10-30T03:17:53;96377.00;;;11.90
10869;BMP180;62667;48.698;8.762;2022-10-30T03:20:22;96389.00;;;11.90
10869;BMP180;62667;48.698;8.762;2022-10-30T03:22:48;96386.00;;;11.80
10869;BMP180;62667;48.698;8.762;2022-10-30T03:25:15;96386.00;;;11.80
10869;BMP180;62667;48.698;8.762;2022-10-30T03:27:42;96383.00;;;11.80
10869;BMP180;62667;48.698;8.762;2022-10-30T03:30:10;96379.00;;;11.70
10869;BMP180;62667;48.698;8.762;2022-10-30T03:32:37;96382.00;;;11.60
10869;BMP180;62667;48.698;8.762;2022-10-30T03:35:04;96382.00;;;11.50
10869;BMP180;62667;48.698;8.762;2022-10-30T03:37:32;96385.00;;;11.50
10869;BMP180;62667;48.698;8.762;2022-10-30T03:39:59;96389.00;;;11.50
10869;BMP180;62667;48.698;8.762;2022-10-30T03:42:28;96385.00;;;11.60
10869;BMP180;62667;48.698;8.762;2022-10-30T03:44:54;96386.00;;;11.60
10869;BMP180;62667;48.698;8.762;2022-10-30T03:47:21;96384.00;;;11.60
10869;BMP180;62667;48.698;8.762;2022-10-30T03:49:48;96385.00;;;11.60
10869;BMP180;62667;48.698;8.762;2022-10-30T03:52:17;96392.00;;;11.50
10869;BMP180;62667;48.698;8.762;2022-10-30T03:54:43;96389.00;;;11.50
10869;BMP180;62667;48.698;8.762;2022-10-30T03:57:09;96385.00;;;11.50
10869;BMP180;62667;48.698;8.762;2022-10-30T03:59:36;96393.00;;;11.50
10869;BMP180;62667;48.698;8.762;2022-10-30T04:02:02;96384.00;;;11.60
10869;BMP180;62667;48.698;8.762;2022-10-30T04:04:29;96396.00;;;11.60
10869;BMP180;62667;48.698;8.762;2022-10-30T04:06:56;96393.00;;;11.60
10869;BMP180;62667;48.698;8.762;2022-10-30T04:09:22;96380.00;;;11.60
10869;BMP180;62667;48.698;8.762;2022-10-30T04:11:48;96386.00;;;11.60
10869;BMP180;62667;48.698;8.762;2022-10-30T04:14:15;96389.00;;;11.60
10869;BMP180;62667;48.698;8.762;2022-10-30T04:16:43;96393.00;;;11.60
10869;BMP180;62667;48.698;8.762;2022-10-30T04:19:12;96386.00;;;11.60
10869;BMP180;62667;48.698;8.762;2022-10-30T04:21:39;96391.00;;;11.70
10869;BMP180;62667;48.698;8.762;2022-10-30T04:24:08;96398.00;;;11.70
10869;BMP180;62667;48.698;8.762;2022-10-30T04:26:35;96381.00;;;11.60
10869;BMP180;62667;48.698;8.762;2022-10-30T04:29:01;96390.00;;;11.30
10869;BMP180;62667;48.698;8.762;2022-10-30T04:31:28;96388.00;;;11.30
10869;BMP180;62667;48.698;8.762;2022-10-30T04:33:54;96385.00;;;11.10
10869;BMP180;62667;48.698;8.762;2022-10-30T04:36:20;96389.00;;;11.00
10869;BMP180;62667;48.698;8.762;2022-10-30T04:38:52;96387.00;;;11.10
10869;BMP180;62667;48.698;8.762;2022-10-30T04:41:19;96387.00;;;11.10
10869;BMP180;62667;48.698;8.762;2022-10-30T04:43:47;96384.00;;;11.10
10869;BMP180;62667;48.698;8.762;2022-10-30T04:46:14;96391.00;;;11.10
10869;BMP180;62667;48.698;8.762;2022-10-30T04:48:42;96389.00;;;11.10
10869;BMP180;62667;48.698;8.762;2022-10-30T04:51:10;96394.00;;;11.10
10869;BMP180;62667;48.698;8.762;2022-10-30T04:53:37;96384.00;;;11.00
10869;BMP180;62667;48.698;8.762;2022-10-30T04:56:07;96389.00;;;11.10
10869;BMP180;62667;48.698;8.762;2022-10-30T04:58:35;96392.00;;;11.10
10869;BMP180;62667;48.698;8.762;2022-10-30T05:01:03;96397.00;;;11.10
10869;BMP180;62667;48.698;8.762;2022-10-30T05:03:30;96389.00;;;11.10
10869;BMP180;62667;48.698;8.762;2022-10-30T05:06:01;96387.00;;;11.10
10869;BMP180;62667;48.698;8.762;2022-10-30T05:08:30;96385.00;;;11.10
10869;BMP180;62667;48.698;8.762;2022-10-30T05:11:02;96382.00;;;10.90
10869;BMP180;62667;48.698;8.762;2022-10-30T05:13:30;96377.00;;;10.80
10869;BMP180;62667;48.698;8.762;2022-10-30T05:15:59;96378.00;;;10.90
10869;BMP180;62667;48.698;8.762;2022-10-30T05:18:25;96383.00;;;10.90
10869;BMP180;62667;48.698;8.762;2022-10-30T05:20:52;96378.00;;;10.90
10869;BMP180;62667;48.698;8.762;2022-10-30T05:23:18;96374.00;;;10.90
10869;BMP180;62667;48.698;8.762;2022-10-30T05:25:45;96374.00;;;10.90
10869;BMP180;62667;48.698;8.762;2022-10-30T05:28:11;96381.00;;;10.90
10869;BMP180;62667;48.698;8.762;2022-10-30T05:30:39;96374.00;;;11.00
10869;BMP180;62667;48.698;8.762;2022-10-30T05:33:11;96374.00;;;10.90
10869;BMP180;62667;48.698;8.762;2022-10-30T05:35:38;96370.00;;;10.90
10869;BMP180;62667;48.698;8.762;2022-10-30T05:38:06;96379.00;;;10.90
10869;BMP180;62667;48.698;8.762;2022-10-30T05:40:34;96378.00;;;10.80
10869;BMP180;62667;48.698;8.762;2022-10-30T05:43:00;96367.00;;;10.70
10869;BMP180;62667;48.698;8.762;2022-10-30T05:45:27;96381.00;;;10.70
10869;BMP180;62667;48.698;8.762;2022-10-30T05:47:55;96376.00;;;10.50
10869;BMP180;62667;48.698;8.762;2022-10-30T05:50:22;96374.00;;;10.50
10869;BMP180;62667;48.698;8.762;2022-10-30T05:52:48;96377.00;;;10.60
10869;BMP180;62667;48.698;8.762;2022-10-30T05:55:15;96376.00;;;10.60
10869;BMP180;62667;48.698;8.762;2022-10-30T05:57:41;96374.00;;;10.60
10869;BMP180;62667;48.698;8.762;2022-10-30T06:00:09;96379.00;;;10.60
10869;BMP180;62667;48.698;8.762;2022-10-30T06:02:36;96376.00;;;10.60
10869;BMP180;62667;48.698;8.762;2022-10-30T06:05:04;96372.00;;;10.60
10869;BMP180;62667;48.698;8.762;2022-10-30T06:07:30;96369.00;;;10.60
10869;BMP180;62667;48.698;8.762;2022-10-30T06:09:57;96382.00;;;10.70
10869;BMP180;62667;48.698;8.762;2022-10-30T06:12:23;96385.00;;;10.60
10869;BMP180;62667;48.698;8.762;2022-10-30T06:14:49;96374.00;;;10.60
10869;BMP180;62667;48.698;8.762;2022-10-30T06:17:16;96381.00;;;10.70
10869;BMP180;62667;48.698;8.762;2022-10-30T06:19:44;96380.00;;;10.70
10869;BMP180;62667;48.698;8.762;2022-10-30T06:22:11;96376.00;;;10.60
10869;BMP180;62667;48.698;8.762;2022-10-30T06:24:37;96378.00;;;10.60
10869;BMP180;62667;48.698;8.762;2022-10-30T06:27:04;96376.00;;;10.60
10869;BMP180;62667;48.698;8.762;2022-10-30T06:29:33;96380.00;;;10.60
10869;BMP180;62667;48.698;8.762;2022-10-30T06:31:59;96379.00;;;10.60
10869;BMP180;62667;48.698;8.762;2022-10-30T06:34:25;96385.00;;;10.60
10869;BMP180;62667;48.698;8.762;2022-10-30T06:36:52;96382.00;;;10.70
10869;BMP180;62667;48.698;8.762;2022-10-30T06:39:19;96377.00;;;10.60
10869;BMP180;62667;48.698;8.762;2022-10-30T06:41:45;96383.00;;;10.70
10869;BMP180;62667;48.698;8.762;2022-10-30T06:44:14;96356.00;;;10.70
10869;BMP180;62667;48.698;8.762;2022-10-30T06:46:40;96383.00;;;10.70
10869;BMP180;62667;48.698;8.762;2022-10-30T06:49:07;96382.00;;;10.70
10869;BMP180;62667;48.698;8.762;2022-10-30T06:51:33;96389.00;;;10.70
10869;BMP180;62667;48.698;8.762;2022-10-30T06:54:00;96377.00;;;10.60
10869;BMP180;62667;48.698;8.762;2022-10-30T06:56:27;96392.00;;;10.70
10869;BMP180;62667;48.698;8.762;2022-10-30T06:58:53;96393.00;;;10.70
10869;BMP180;62667;48.698;8.762;2022-10-30T07:01:20;96380.00;;;10.80
10869;BMP180;62667;48.698;8.762;2022-10-30T07:03:46;96388.00;;;10.80
10869;BMP180;62667;48.698;8.762;2022-10-30T07:06:12;96389.00;;;10.90
10869;BMP180;62667;48.698;8.762;2022-10-30T07:08:39;96383.00;;;10.80
10869;BMP180;62667;48.698;8.762;2022-10-30T07:11:05;96387.00;;;10.80
10869;BMP180;62667;48.698;8.762;2022-10-30T07:13:32;96392.00;;;11.00
10869;BMP180;62667;48.698;8.762;2022-10-30T07:15:59;96392.00;;;10.90
10869;BMP180;62667;48.698;8.762;2022-10-30T07:18:26;96385.00;;;11.00
10869;BMP180;62667;48.698;8.762;2022-10-30T07:20:53;96387.00;;;11.10
10869;BMP180;62667;48.698;8.762;2022-10-30T07:23:20;96401.00;;;10.90
10869;BMP180;62667;48.698;8.762;2022-10-30T07:25:47;96394.00;;;11.20
10869;BMP180;62667;48.698;8.762;2022-10-30T07:28:13;96390.00;;;11.20
10869;BMP180;62667;48.698;8.762;2022-10-30T07:30:40;96394.00;;;11.20
10869;BMP180;62667;48.698;8.762;2022-10-30T07:33:09;96391.00;;;11.30
10869;BMP180;62667;48.698;8.762;2022-10-30T07:35:36;96393.00;;;11.40
10869;BMP180;62667;48.698;8.762;2022-10-30T07:38:03;96398.00;;;11.30
10869;BMP180;62667;48.698;8.762;2022-10-30T07:40:30;96398.00;;;11.50
10869;BMP180;62667;48.698;8.762;2022-10-30T07:43:00;96389.00;;;11.50
10869;BMP180;62667;48.698;8.762;2022-10-30T07:45:27;96390.00;;;11.70
10869;BMP180;62667;48.698;8.762;2022-10-30T07:47:55;96399.00;;;11.70
10869;BMP180;62667;48.698;8.762;2022-10-30T07:50:21;96397.00;;;11.80
10869;BMP180;62667;48.698;8.762;2022-10-30T07:52:48;96397.00;;;11.90
10869;BMP180;62667;48.698;8.762;2022-10-30T07:55:17;96400.00;;;12.00
10869;BMP180;62667;48.698;8.762;2022-10-30T07:57:43;96405.00;;;12.10
10869;BMP180;62667;48.698;8.762;2022-10-30T08:00:13;96398.00;;;12.20
10869;BMP180;62667;48.698;8.762;2022-10-30T08:02:41;96399.00;;;12.20
10869;BMP180;62667;48.698;8.762;2022-10-30T08:05:09;96396.00;;;12.30
10869;BMP180;62667;48.698;8.762;2022-10-30T08:07:37;96402.00;;;12.30
10869;BMP180;62667;48.698;8.762;2022-10-30T08:10:07;96405.00;;;12.50
10869;BMP180;62667;48.698;8.762;2022-10-30T08:12:36;96400.00;;;12.50
10869;BMP180;62667;48.698;8.762;2022-10-30T08:15:06;96396.00;;;12.60
10869;BMP180;62667;48.698;8.762;2022-10-30T08:17:40;96402.00;;;12.70
10869;BMP180;62667;48.698;8.762;2022-10-30T08:20:09;96395.00;;;12.90
10869;BMP180;62667;48.698;8.762;2022-10-30T08:22:44;96367.00;;;12.90
10869;BMP180;62667;48.698;8.762;2022-10-30T08:25:13;96402.00;;;13.00
10869;BMP180;62667;48.698;8.762;2022-10-30T08:27:52;96396.00;;;13.10
10869;BMP180;62667;48.698;8.762;2022-10-30T08:30:20;96392.00;;;13.30
10869;BMP180;62667;48.698;8.762;2022-10-30T08:32:46;96389.00;;;13.40
10869;BMP180;62667;48.698;8.762;2022-10-30T08:35:13;96393.00;;;13.40
10869;BMP180;62667;48.698;8.762;2022-10-30T08:37:41;96391.00;;;13.70
10869;BMP180;62667;48.698;8.762;2022-10-30T08:40:09;96389.00;;;13.80
10869;BMP180;62667;48.698;8.762;2022-10-30T08:42:36;96394.00;;;14.00
10869;BMP180;62667;48.698;8.762;2022-10-30T08:45:04;96391.00;;;14.10
10869;BMP180;62667;48.698;8.762;2022-10-30T08:47:31;96389.00;;;14.10
10869;BMP180;62667;48.698;8.762;2022-10-30T08:49:57;96390.00;;;14.00
10869;BMP180;62667;48.698;8.762;2022-10-30T08:52:24;96391.00;;;14.10
10869;BMP180;62667;48.698;8.762;2022-10-30T08:54:53;96389.00;;;14.30
10869;BMP180;62667;48.698;8.762;2022-10-30T08:57:20;96394.00;;;14.40
10869;BMP180;62667;48.698;8.762;2022-10-30T08:59:46;96397.00;;;14.30
10869;BMP180;62667;48.698;8.762;2022-10-30T09:02:13;96389.00;;;14.50
10869;BMP180;62667;48.698;8.762;2022-10-30T09:04:39;96389.00;;;14.70
10869;BMP180;62667;48.698;8.762;2022-10-30T09:07:08;96392.00;;;14.80
10869;BMP180;62667;48.698;8.762;2022-10-30T09:09:35;96387.00;;;14.90
10869;BMP180;62667;48.698;8.762;2022-10-30T09:12:02;96389.00;;;14.80
10869;BMP180;62667;48.698;8.762;2022-10-30T09:14:31;96384.00;;;15.00
10869;BMP180;62667;48.698;8.762;2022-10-30T09:16:58;96391.00;;;15.20
10869;BMP180;62667;48.698;8.762;2022-10-30T09:19:25;96389.00;;;15.40
10869;BMP180;62667;48.698;8.762;2022-10-30T09:21:53;96387.00;;;15.60
10869;BMP180;62667;48.698;8.762;2022-10-30T09:24:22;96391.00;;;15.80
10869;BMP180;62667;48.698;8.762;2022-10-30T09:26:49;96387.00;;;15.80
10869;BMP180;62667;48.698;8.762;2022-10-30T09:29:15;96389.00;;;15.90
10869;BMP180;62667;48.698;8.762;2022-10-30T09:31:42;96385.00;;;16.00
10869;BMP180;62667;48.698;8.762;2022-10-30T09:34:08;96385.00;;;16.20
10869;BMP180;62667;48.698;8.762;2022-10-30T09:36:35;96381.00;;;16.40
10869;BMP180;62667;48.698;8.762;2022-10-30T09:39:01;96387.00;;;16.60
10869;BMP180;62667;48.698;8.762;2022-10-30T09:41:51;96391.00;;;16.80
10869;BMP180;62667;48.698;8.762;2022-10-30T09:44:35;96393.00;;;16.90
10869;BMP180;62667;48.698;8.762;2022-10-30T09:47:19;96389.00;;;17.10
10869;BMP180;62667;48.698;8.762;2022-10-30T09:50:02;96391.00;;;17.30
10869;BMP180;62667;48.698;8.762;2022-10-30T09:52:39;96389.00;;;17.50
10869;BMP180;62667;48.698;8.762;2022-10-30T09:55:28;96385.00;;;17.80
10869;BMP180;62667;48.698;8.762;2022-10-30T09:58:18;96393.00;;;17.90
10869;BMP180;62667;48.698;8.762;2022-10-30T10:00:52;96392.00;;;18.00
10869;BMP180;62667;48.698;8.762;2022-10-30T10:03:37;96389.00;;;18.10
10869;BMP180;62667;48.698;8.762;2022-10-30T10:06:14;96389.00;;;18.30
10869;BMP180;62667;48.698;8.762;2022-10-30T10:08:48;96398.00;;;18.40
10869;BMP180;62667;48.698;8.762;2022-10-30T10:11:23;96397.00;;;18.80
10869;BMP180;62667;48.698;8.762;2022-10-30T10:13:59;96394.00;;;18.80
10869;BMP180;62667;48.698;8.762;2022-10-30T10:16:30;96391.00;;;19.00
10869;BMP180;62667;48.698;8.762;2022-10-30T10:19:08;96391.00;;;19.10
10869;BMP180;62667;48.698;8.762;2022-10-30T10:21:38;96388.00;;;19.30
10869;BMP180;62667;48.698;8.762;2022-10-30T10:24:15;96392.00;;;19.60
10869;BMP180;62667;48.698;8.762;2022-10-30T10:26:47;96387.00;;;19.90
10869;BMP180;62667;48.698;8.762;2022-10-30T10:29:41;96377.00;;;20.10
10869;BMP180;62667;48.698;8.762;2022-10-30T10:32:39;96377.00;;;20.20
10869;BMP180;62667;48.698;8.762;2022-10-30T10:35:23;96383.00;;;20.40
10869;BMP180;62667;48.698;8.762;2022-10-30T10:38:08;96376.00;;;20.70
10869;BMP180;62667;48.698;8.762;2022-10-30T10:40:52;96377.00;;;20.90
10869;BMP180;62667;48.698;8.762;2022-10-30T10:43:38;96378.00;;;21.10
10869;BMP180;62667;48.698;8.762;2022-10-30T10:46:29;96375.00;;;21.20
10869;BMP180;62667;48.698;8.762;2022-10-30T10:49:15;96379.00;;;21.50
10869;BMP180;62667;48.698;8.762;2022-10-30T10:51:52;96374.00;;;21.70
10869;BMP180;62667;48.698;8.762;2022-10-30T10:54:26;96374.00;;;22.10
10869;BMP180;62667;48.698;8.762;2022-10-30T10:56:56;96369.00;;;22.10
10869;BMP180;62667;48.698;8.762;2022-10-30T10:59:33;96370.00;;;22.30
10869;BMP180;62667;48.698;8.762;2022-10-30T11:02:28;96370.00;;;22.60
10869;BMP180;62667;48.698;8.762;2022-10-30T11:05:05;96363.00;;;23.10
10869;BMP180;62667;48.698;8.762;2022-10-30T11:07:42;96362.00;;;23.20
10869;BMP180;62667;48.698;8.762;2022-10-30T11:10:13;96368.00;;;23.50
10869;BMP180;62667;48.698;8.762;2022-10-30T11:12:40;96365.00;;;23.60
10869;BMP180;62667;48.698;8.762;2022-10-30T11:15:40;96363.00;;;23.70
10869;BMP180;62667;48.698;8.762;2022-10-30T11:18:09;96362.00;;;23.80
10869;BMP180;62667;48.698;8.762;2022-10-30T11:20:45;96358.00;;;23.90
10869;BMP180;62667;48.698;8.762;2022-10-30T11:23:37;96350.00;;;24.00
10869;BMP180;62667;48.698;8.762;2022-10-30T11:26:26;96369.00;;;24.00
10869;BMP180;62667;48.698;8.762;2022-10-30T11:28:56;96364.00;;;24.00
10869;BMP180;62667;48.698;8.762;2022-10-30T11:31:25;96364.00;;;24.10
10869;BMP180;62667;48.698;8.762;2022-10-30T11:33:54;96369.00;;;24.40
10869;BMP180;62667;48.698;8.762;2022-10-30T11:36:24;96375.00;;;24.60
10869;BMP180;62667;48.698;8.762;2022-10-30T11:38:51;96375.00;;;24.70
10869;BMP180;62667;48.698;8.762;2022-10-30T11:41:20;96370.00;;;24.70
10869;BMP180;62667;48.698;8.762;2022-10-30T11:43:47;96366.00;;;24.70
10869;BMP180;62667;48.698;8.762;2022-10-30T11:46:21;96364.00;;;24.70
10869;BMP180;62667;48.698;8.762;2022-10-30T11:48:49;96364.00;;;24.80
10869;BMP180;62667;48.698;8.762;2022-10-30T11:51:37;96355.00;;;25.10
10869;BMP180;62667;48.698;8.762;2022-10-30T11:54:16;96367.00;;;25.30
10869;BMP180;62667;48.698;8.762;2022-10-30T11:56:47;96364.00;;;25.50
10869;BMP180;62667;48.698;8.762;2022-10-30T11:59:19;96363.00;;;25.60
10869;BMP180;62667;48.698;8.762;2022-10-30T12:01:58;96365.00;;;25.90
10869;BMP180;62667;48.698;8.762;2022-10-30T12:04:28;96356.00;;;26.00
10869;BMP180;62667;48.698;8.762;2022-10-30T12:09:44;96359.00;;;26.30
10869;BMP180;62667;48.698;8.762;2022-10-30T12:12:18;96355.00;;;26.60
10869;BMP180;62667;48.698;8.762;2022-10-30T12:14:46;96354.00;;;26.70
10869;BMP180;62667;48.698;8.762;2022-10-30T12:17:17;96354.00;;;26.80
10869;BMP180;62667;48.698;8.762;2022-10-30T12:19:48;96355.00;;;27.10
10869;BMP180;62667;48.698;8.762;2022-10-30T12:22:29;96345.00;;;27.00
10869;BMP180;62667;48.698;8.762;2022-10-30T12:24:57;96362.00;;;27.20
10869;BMP180;62667;48.698;8.762;2022-10-30T12:27:25;96358.00;;;27.10
10869;BMP180;62667;48.698;8.762;2022-10-30T12:30:04;96349.00;;;26.20
10869;BMP180;62667;48.698;8.762;2022-10-30T12:32:42;96335.00;;;25.90
10869;BMP180;62667;48.698;8.762;2022-10-30T12:35:30;96338.00;;;26.20
10869;BMP180;62667;48.698;8.762;2022-10-30T12:37:59;96341.00;;;26.80
10869;BMP180;62667;48.698;8.762;2022-10-30T12:40:29;96331.00;;;27.30
10869;BMP180;62667;48.698;8.762;2022-10-30T12:43:01;96331.00;;;27.90
10869;BMP180;62667;48.698;8.762;2022-10-30T12:45:34;96324.00;;;28.50
10869;BMP180;62667;48.698;8.762;2022-10-30T12:48:12;96315.00;;;29.80
10869;BMP180;62667;48.698;8.762;2022-10-30T12:50:44;96325.00;;;30.80
10869;BMP180;62667;48.698;8.762;2022-10-30T12:53:23;96322.00;;;31.70
10869;BMP180;62667;48.698;8.762;2022-10-30T12:55:59;96321.00;;;32.70
10869;BMP180;62667;48.698;8.762;2022-10-30T12:58:35;96322.00;;;33.40
10869;BMP180;62667;48.698;8.762;2022-10-30T13:01:18;96325.00;;;32.70
10869;BMP180;62667;48.698;8.762;2022-10-30T13:03:56;96318.00;;;33.90
10869;BMP180;62667;48.698;8.762;2022-10-30T13:06:27;96321.00;;;34.50
10869;BMP180;62667;48.698;8.762;2022-10-30T13:09:11;96327.00;;;35.80
10869;BMP180;62667;48.698;8.762;2022-10-30T13:11:47;96321.00;;;37.00
10869;BMP180;62667;48.698;8.762;2022-10-30T13:14:21;96332.00;;;36.20
10869;BMP180;62667;48.698;8.762;2022-10-30T13:16:53;96325.00;;;35.80
10869;BMP180;62667;48.698;8.762;2022-10-30T13:19:19;96326.00;;;36.80
10869;BMP180;62667;48.698;8.762;2022-10-30T13:21:59;96328.00;;;35.10
10869;BMP180;62667;48.698;8.762;2022-10-30T13:24:44;96332.00;;;36.20
10869;BMP180;62667;48.698;8.762;2022-10-30T13:27:19;96326.00;;;35.50
10869;BMP180;62667;48.698;8.762;2022-10-30T13:30:00;96325.00;;;35.20
10869;BMP180;62667;48.698;8.762;2022-10-30T13:32:35;96322.00;;;35.70
10869;BMP180;62667;48.698;8.762;2022-10-30T13:35:19;96333.00;;;36.70
10869;BMP180;62667;48.698;8.762;2022-10-30T13:37:57;96332.00;;;36.80
10869;BMP180;62667;48.698;8.762;2022-10-30T13:40:32;96337.00;;;36.50
10869;BMP180;62667;48.698;8.762;2022-10-30T13:43:16;96342.00;;;35.60
10869;BMP180;62667;48.698;8.762;2022-10-30T13:46:22;96334.00;;;35.00
10869;BMP180;62667;48.698;8.762;2022-10-30T13:49:13;96331.00;;;35.40
10869;BMP180;62667;48.698;8.762;2022-10-30T13:51:49;96345.00;;;35.40
10869;BMP180;62667;48.698;8.762;2022-10-30T13:54:25;96337.00;;;34.20
10869;BMP180;62667;48.698;8.762;2022-10-30T13:57:02;96341.00;;;34.20
10869;BMP180;62667;48.698;8.762;2022-10-30T13:59:49;96343.00;;;33.80
10869;BMP180;62667;48.698;8.762;2022-10-30T14:02:35;96345.00;;;33.80
10869;BMP180;62667;48.698;8.762;2022-10-30T14:05:21;96349.00;;;33.30
10869;BMP180;62667;48.698;8.762;2022-10-30T14:07:57;96353.00;;;32.80
10869;BMP180;62667;48.698;8.762;2022-10-30T14:10:42;96354.00;;;31.90
10869;BMP180;62667;48.698;8.762;2022-10-30T14:13:20;96349.00;;;31.00
10869;BMP180;62667;48.698;8.762;2022-10-30T14:15:54;96348.00;;;30.50
10869;BMP180;62667;48.698;8.762;2022-10-30T14:18:42;96356.00;;;30.20
10869;BMP180;62667;48.698;8.762;2022-10-30T14:24:19;96356.00;;;29.50
10869;BMP180;62667;48.698;8.762;2022-10-30T14:26:53;96354.00;;;29.40
10869;BMP180;62667;48.698;8.762;2022-10-30T14:29:41;96358.00;;;29.20
10869;BMP180;62667;48.698;8.762;2022-10-30T14:32:38;96356.00;;;29.10
10869;BMP180;62667;48.698;8.762;2022-10-30T14:35:37;96359.00;;;28.60
10869;BMP180;62667;48.698;8.762;2022-10-30T14:38:34;96359.00;;;28.60
10869;BMP180;62667;48.698;8.762;2022-10-30T14:41:47;96364.00;;;28.00
10869;BMP180;62667;48.698;8.762;2022-10-30T14:47:46;96358.00;;;27.80